sensor_id;sensor_type;location;lat;lon;timestamp;P1;durP1;ratioP1;P2;durP2;ratioP2
8074;SDS011;4080;42.676;23.372;2022-12-10T00:00:06;22.37;;;10.70;;
8074;SDS011;4080;42.676;23.372;2022-12-10T00:02:33;18.50;;;10.83;;
8074;SDS011;4080;42.676;23.372;2022-12-10T00:05:00;20.70;;;10.20;;
8074;SDS011;4080;42.676;23.372;2022-12-10T00:07:27;16.80;;;10.10;;
8074;SDS011;4080;42.676;23.372;2022-12-10T00:09:53;21.77;;;9.90;;
8074;SDS011;4080;42.676;23.372;2022-12-10T00:12:20;21.23;;;10.10;;
8074;SDS011;4080;42.676;23.372;2022-12-10T00:14:48;22.27;;;10.10;;
8074;SDS011;4080;42.676;23.372;2022-12-10T00:17:15;21.47;;;9.10;;
8074;SDS011;4080;42.676;23.372;2022-12-10T00:19:42;16.67;;;9.97;;
8074;SDS011;4080;42.676;23.372;2022-12-10T00:22:08;23.60;;;10.30;;
8074;SDS011;4080;42.676;23.372;2022-12-10T00:24:35;17.67;;;9.73;;
8074;SDS011;4080;42.676;23.372;2022-12-10T00:27:02;18.20;;;9.87;;
8074;SDS011;4080;42.676;23.372;2022-12-10T00:29:28;20.07;;;10.37;;
8074;SDS011;4080;42.676;23.372;2022-12-10T00:31:56;19.60;;;10.07;;
8074;SDS011;4080;42.676;23.372;2022-12-10T00:34:23;19.13;;;9.50;;
8074;SDS011;4080;42.676;23.372;2022-12-10T00:36:50;18.63;;;10.27;;
8074;SDS011;4080;42.676;23.372;2022-12-10T00:39:17;15.23;;;10.37;;
8074;SDS011;4080;42.676;23.372;2022-12-10T00:41:46;21.90;;;9.83;;
8074;SDS011;4080;42.676;23.372;2022-12-10T00:44:12;21.57;;;10.30;;
8074;SDS011;4080;42.676;23.372;2022-12-10T00:46:40;19.30;;;9.73;;
8074;SDS011;4080;42.676;23.372;2022-12-10T00:49:08;17.07;;;9.50;;
8074;SDS011;4080;42.676;23.372;2022-12-10T00:51:35;21.57;;;9.17;;
8074;SDS011;4080;42.676;23.372;2022-12-10T00:54:01;18.23;;;7.93;;
8074;SDS011;4080;42.676;23.372;2022-12-10T00:56:29;23.77;;;9.50;;
8074;SDS011;4080;42.676;23.372;2022-12-10T00:58:57;24.67;;;9.10;;
8074;SDS011;4080;42.676;23.372;2022-12-10T01:01:25;14.00;;;8.10;;
8074;SDS011;4080;42.676;23.372;2022-12-10T01:03:55;17.57;;;8.33;;
8074;SDS011;4080;42.676;23.372;2022-12-10T01:06:25;14.50;;;7.80;;
8074;SDS011;4080;42.676;23.372;2022-12-10T01:08:54;19.23;;;8.73;;
8074;SDS011;4080;42.676;23.372;2022-12-10T01:11:24;13.00;;;8.40;;
8074;SDS011;4080;42.676;23.372;2022-12-10T01:13:52;15.40;;;7.87;;
8074;SDS011;4080;42.676;23.372;2022-12-10T01:16:20;13.93;;;8.23;;
8074;SDS011;4080;42.676;23.372;2022-12-10T01:18:47;21.30;;;8.27;;
8074;SDS011;4080;42.676;23.372;2022-12-10T01:21:15;17.50;;;8.63;;
8074;SDS011;4080;42.676;23.372;2022-12-10T01:23:45;20.03;;;8.73;;
8074;SDS011;4080;42.676;23.372;2022-12-10T01:26:14;17.47;;;8.60;;
8074;SDS011;4080;42.676;23.372;2022-12-10T01:28:42;16.10;;;8.40;;
8074;SDS011;4080;42.676;23.372;2022-12-10T01:31:10;16.73;;;8.03;;
8074;SDS011;4080;42.676;23.372;2022-12-10T01:33:39;16.50;;;8.70;;
8074;SDS011;4080;42.676;23.372;2022-12-10T01:36:07;16.50;;;8.87;;
8074;SDS011;4080;42.676;23.372;2022-12-10T01:38:35;14.13;;;7.77;;
8074;SDS011;4080;42.676;23.372;2022-12-10T01:41:04;16.83;;;8.33;;
8074;SDS011;4080;42.676;23.372;2022-12-10T01:46:18;23.17;;;8.00;;
8074;SDS011;4080;42.676;23.372;2022-12-10T01:48:45;12.43;;;7.30;;
8074;SDS011;4080;42.676;23.372;2022-12-10T01:51:13;18.07;;;7.97;;
8074;SDS011;4080;42.676;23.372;2022-12-10T01:53:40;14.97;;;7.90;;
8074;SDS011;4080;42.676;23.372;2022-12-10T01:56:10;17.20;;;8.23;;
8074;SDS011;4080;42.676;23.372;2022-12-10T01:58:37;14.43;;;7.60;;
8074;SDS011;4080;42.676;23.372;2022-12-10T02:01:06;12.73;;;7.33;;
8074;SDS011;4080;42.676;23.372;2022-12-10T02:03:38;17.03;;;7.70;;
8074;SDS011;4080;42.676;23.372;2022-12-10T02:06:20;14.60;;;8.07;;
8074;SDS011;4080;42.676;23.372;2022-12-10T02:09:02;19.03;;;8.57;;
8074;SDS011;4080;42.676;23.372;2022-12-10T02:11:40;19.20;;;7.30;;
8074;SDS011;4080;42.676;23.372;2022-12-10T02:14:12;13.10;;;7.87;;
8074;SDS011;4080;42.676;23.372;2022-12-10T02:16:44;11.77;;;7.50;;
8074;SDS011;4080;42.676;23.372;2022-12-10T02:19:18;12.43;;;8.00;;
8074;SDS011;4080;42.676;23.372;2022-12-10T02:21:54;17.00;;;7.77;;
8074;SDS011;4080;42.676;23.372;2022-12-10T02:24:23;16.93;;;8.20;;
8074;SDS011;4080;42.676;23.372;2022-12-10T02:26:58;15.83;;;7.63;;
8074;SDS011;4080;42.676;23.372;2022-12-10T02:29:32;14.80;;;7.53;;
8074;SDS011;4080;42.676;23.372;2022-12-10T02:32:02;14.60;;;8.07;;
8074;SDS011;4080;42.676;23.372;2022-12-10T02:34:33;12.53;;;6.83;;
8074;SDS011;4080;42.676;23.372;2022-12-10T02:37:04;14.37;;;7.60;;
8074;SDS011;4080;42.676;23.372;2022-12-10T02:39:35;17.90;;;7.47;;
8074;SDS011;4080;42.676;23.372;2022-12-10T02:42:05;14.90;;;7.80;;
8074;SDS011;4080;42.676;23.372;2022-12-10T02:44:36;18.17;;;7.70;;
8074;SDS011;4080;42.676;23.372;2022-12-10T02:47:07;13.40;;;7.23;;
8074;SDS011;4080;42.676;23.372;2022-12-10T02:49:35;14.00;;;6.93;;
8074;SDS011;4080;42.676;23.372;2022-12-10T02:52:07;14.70;;;7.17;;
8074;SDS011;4080;42.676;23.372;2022-12-10T02:54:37;13.53;;;7.13;;
8074;SDS011;4080;42.676;23.372;2022-12-10T02:57:08;11.80;;;7.90;;
8074;SDS011;4080;42.676;23.372;2022-12-10T02:59:46;13.70;;;7.77;;
8074;SDS011;4080;42.676;23.372;2022-12-10T03:02:29;14.63;;;7.03;;
8074;SDS011;4080;42.676;23.372;2022-12-10T03:05:05;11.40;;;7.17;;
8074;SDS011;4080;42.676;23.372;2022-12-10T03:07:41;11.10;;;7.53;;
8074;SDS011;4080;42.676;23.372;2022-12-10T03:10:23;15.37;;;8.23;;
8074;SDS011;4080;42.676;23.372;2022-12-10T03:12:53;16.10;;;8.43;;
8074;SDS011;4080;42.676;23.372;2022-12-10T03:15:26;13.90;;;7.87;;
8074;SDS011;4080;42.676;23.372;2022-12-10T03:17:57;15.40;;;7.70;;
8074;SDS011;4080;42.676;23.372;2022-12-10T03:20:27;18.67;;;8.40;;
8074;SDS011;4080;42.676;23.372;2022-12-10T03:22:56;15.60;;;7.73;;
8074;SDS011;4080;42.676;23.372;2022-12-10T03:25:24;13.53;;;7.63;;
8074;SDS011;4080;42.676;23.372;2022-12-10T03:27:54;15.07;;;7.50;;
8074;SDS011;4080;42.676;23.372;2022-12-10T03:30:21;12.30;;;7.73;;
8074;SDS011;4080;42.676;23.372;2022-12-10T03:32:50;11.97;;;7.30;;
8074;SDS011;4080;42.676;23.372;2022-12-10T03:35:18;14.73;;;8.03;;
8074;SDS011;4080;42.676;23.372;2022-12-10T03:37:48;12.47;;;7.57;;
8074;SDS011;4080;42.676;23.372;2022-12-10T03:40:15;17.20;;;8.47;;
8074;SDS011;4080;42.676;23.372;2022-12-10T03:42:43;14.37;;;7.37;;
8074;SDS011;4080;42.676;23.372;2022-12-10T03:45:10;16.77;;;8.30;;
8074;SDS011;4080;42.676;23.372;2022-12-10T03:47:37;11.07;;;7.90;;
8074;SDS011;4080;42.676;23.372;2022-12-10T03:50:06;17.47;;;8.60;;
8074;SDS011;4080;42.676;23.372;2022-12-10T03:52:33;15.00;;;8.10;;
8074;SDS011;4080;42.676;23.372;2022-12-10T03:55:00;15.73;;;8.77;;
8074;SDS011;4080;42.676;23.372;2022-12-10T03:57:26;13.70;;;7.90;;
8074;SDS011;4080;42.676;23.372;2022-12-10T03:59:53;12.70;;;8.00;;
8074;SDS011;4080;42.676;23.372;2022-12-10T04:02:20;14.17;;;8.10;;
8074;SDS011;4080;42.676;23.372;2022-12-10T04:04:46;15.60;;;8.43;;
8074;SDS011;4080;42.676;23.372;2022-12-10T04:07:14;15.73;;;8.73;;
8074;SDS011;4080;42.676;23.372;2022-12-10T04:09:41;14.27;;;8.90;;
8074;SDS011;4080;42.676;23.372;2022-12-10T04:12:08;20.00;;;9.17;;
8074;SDS011;4080;42.676;23.372;2022-12-10T04:14:34;16.77;;;9.40;;
8074;SDS011;4080;42.676;23.372;2022-12-10T04:17:19;17.73;;;9.60;;
8074;SDS011;4080;42.676;23.372;2022-12-10T04:19:46;18.87;;;8.23;;
8074;SDS011;4080;42.676;23.372;2022-12-10T04:22:13;13.20;;;8.37;;
8074;SDS011;4080;42.676;23.372;2022-12-10T04:24:58;15.00;;;8.93;;
8074;SDS011;4080;42.676;23.372;2022-12-10T04:27:42;13.83;;;8.67;;
8074;SDS011;4080;42.676;23.372;2022-12-10T04:30:10;13.67;;;7.60;;
8074;SDS011;4080;42.676;23.372;2022-12-10T04:32:38;17.17;;;7.77;;
8074;SDS011;4080;42.676;23.372;2022-12-10T04:35:05;15.17;;;7.83;;
8074;SDS011;4080;42.676;23.372;2022-12-10T04:37:34;15.17;;;8.10;;
8074;SDS011;4080;42.676;23.372;2022-12-10T04:40:01;12.00;;;8.23;;
8074;SDS011;4080;42.676;23.372;2022-12-10T04:42:28;17.77;;;9.10;;
8074;SDS011;4080;42.676;23.372;2022-12-10T04:44:55;17.47;;;7.47;;
8074;SDS011;4080;42.676;23.372;2022-12-10T04:47:22;13.07;;;8.67;;
8074;SDS011;4080;42.676;23.372;2022-12-10T04:49:48;25.03;;;11.80;;
8074;SDS011;4080;42.676;23.372;2022-12-10T04:52:15;18.43;;;9.60;;
8074;SDS011;4080;42.676;23.372;2022-12-10T04:54:44;18.50;;;9.07;;
8074;SDS011;4080;42.676;23.372;2022-12-10T04:57:11;17.77;;;8.93;;
8074;SDS011;4080;42.676;23.372;2022-12-10T04:59:39;16.87;;;8.83;;
8074;SDS011;4080;42.676;23.372;2022-12-10T05:02:05;13.37;;;7.93;;
8074;SDS011;4080;42.676;23.372;2022-12-10T05:04:32;14.10;;;9.00;;
8074;SDS011;4080;42.676;23.372;2022-12-10T05:06:59;14.33;;;8.13;;
8074;SDS011;4080;42.676;23.372;2022-12-10T05:09:27;21.53;;;9.93;;
8074;SDS011;4080;42.676;23.372;2022-12-10T05:11:55;14.60;;;8.70;;
8074;SDS011;4080;42.676;23.372;2022-12-10T05:14:21;13.40;;;8.50;;
8074;SDS011;4080;42.676;23.372;2022-12-10T05:16:48;18.07;;;8.80;;
8074;SDS011;4080;42.676;23.372;2022-12-10T05:19:17;17.33;;;9.50;;
8074;SDS011;4080;42.676;23.372;2022-12-10T05:21:44;17.10;;;8.90;;
8074;SDS011;4080;42.676;23.372;2022-12-10T05:24:29;20.17;;;10.97;;
8074;SDS011;4080;42.676;23.372;2022-12-10T05:26:57;22.60;;;13.13;;
8074;SDS011;4080;42.676;23.372;2022-12-10T05:29:24;26.00;;;14.60;;
8074;SDS011;4080;42.676;23.372;2022-12-10T05:31:51;20.87;;;12.73;;
8074;SDS011;4080;42.676;23.372;2022-12-10T05:34:18;19.57;;;13.20;;
8074;SDS011;4080;42.676;23.372;2022-12-10T05:36:44;21.80;;;12.70;;
8074;SDS011;4080;42.676;23.372;2022-12-10T05:39:11;21.60;;;11.90;;
8074;SDS011;4080;42.676;23.372;2022-12-10T05:41:38;23.23;;;12.03;;
8074;SDS011;4080;42.676;23.372;2022-12-10T05:44:08;18.93;;;11.83;;
8074;SDS011;4080;42.676;23.372;2022-12-10T05:46:36;19.13;;;11.07;;
8074;SDS011;4080;42.676;23.372;2022-12-10T05:49:04;19.63;;;11.10;;
8074;SDS011;4080;42.676;23.372;2022-12-10T05:51:32;19.93;;;11.60;;
8074;SDS011;4080;42.676;23.372;2022-12-10T05:54:01;22.63;;;12.23;;
8074;SDS011;4080;42.676;23.372;2022-12-10T05:56:28;18.90;;;12.87;;
8074;SDS011;4080;42.676;23.372;2022-12-10T05:58:57;18.40;;;11.97;;
8074;SDS011;4080;42.676;23.372;2022-12-10T06:01:27;21.07;;;12.20;;
8074;SDS011;4080;42.676;23.372;2022-12-10T06:03:56;20.03;;;11.97;;
8074;SDS011;4080;42.676;23.372;2022-12-10T06:06:24;16.83;;;11.77;;
8074;SDS011;4080;42.676;23.372;2022-12-10T06:08:52;19.30;;;11.87;;
8074;SDS011;4080;42.676;23.372;2022-12-10T06:11:20;22.97;;;12.20;;
8074;SDS011;4080;42.676;23.372;2022-12-10T06:13:47;18.23;;;12.33;;
8074;SDS011;4080;42.676;23.372;2022-12-10T06:16:14;20.40;;;12.30;;
8074;SDS011;4080;42.676;23.372;2022-12-10T06:18:42;17.63;;;11.60;;
8074;SDS011;4080;42.676;23.372;2022-12-10T06:21:11;15.17;;;11.33;;
8074;SDS011;4080;42.676;23.372;2022-12-10T06:23:39;18.57;;;13.03;;
8074;SDS011;4080;42.676;23.372;2022-12-10T06:26:07;19.83;;;13.00;;
8074;SDS011;4080;42.676;23.372;2022-12-10T06:28:35;17.03;;;10.60;;
8074;SDS011;4080;42.676;23.372;2022-12-10T06:31:02;20.70;;;11.77;;
8074;SDS011;4080;42.676;23.372;2022-12-10T06:33:29;17.80;;;11.73;;
8074;SDS011;4080;42.676;23.372;2022-12-10T06:35:57;21.03;;;10.80;;
8074;SDS011;4080;42.676;23.372;2022-12-10T06:38:24;17.50;;;12.57;;
8074;SDS011;4080;42.676;23.372;2022-12-10T06:40:51;22.93;;;14.17;;
8074;SDS011;4080;42.676;23.372;2022-12-10T06:43:17;28.57;;;18.00;;
8074;SDS011;4080;42.676;23.372;2022-12-10T06:45:44;23.57;;;15.23;;
8074;SDS011;4080;42.676;23.372;2022-12-10T06:48:11;20.47;;;14.67;;
8074;SDS011;4080;42.676;23.372;2022-12-10T06:50:38;21.67;;;15.50;;
8074;SDS011;4080;42.676;23.372;2022-12-10T06:53:06;25.23;;;18.43;;
8074;SDS011;4080;42.676;23.372;2022-12-10T06:55:33;21.43;;;15.60;;
8074;SDS011;4080;42.676;23.372;2022-12-10T06:58:01;24.40;;;15.13;;
8074;SDS011;4080;42.676;23.372;2022-12-10T07:00:28;21.63;;;13.83;;
8074;SDS011;4080;42.676;23.372;2022-12-10T07:02:55;25.33;;;17.03;;
8074;SDS011;4080;42.676;23.372;2022-12-10T07:05:22;22.07;;;16.53;;
8074;SDS011;4080;42.676;23.372;2022-12-10T07:07:48;22.87;;;16.13;;
8074;SDS011;4080;42.676;23.372;2022-12-10T07:10:17;19.70;;;14.13;;
8074;SDS011;4080;42.676;23.372;2022-12-10T07:12:43;20.50;;;13.20;;
8074;SDS011;4080;42.676;23.372;2022-12-10T07:15:10;26.70;;;15.93;;
8074;SDS011;4080;42.676;23.372;2022-12-10T07:17:37;23.17;;;13.30;;
8074;SDS011;4080;42.676;23.372;2022-12-10T07:20:04;21.00;;;13.30;;
8074;SDS011;4080;42.676;23.372;2022-12-10T07:22:31;22.23;;;13.20;;
8074;SDS011;4080;42.676;23.372;2022-12-10T07:24:58;25.90;;;13.83;;
8074;SDS011;4080;42.676;23.372;2022-12-10T07:27:26;19.13;;;14.47;;
8074;SDS011;4080;42.676;23.372;2022-12-10T07:29:53;21.53;;;14.53;;
8074;SDS011;4080;42.676;23.372;2022-12-10T07:32:19;17.10;;;12.77;;
8074;SDS011;4080;42.676;23.372;2022-12-10T07:34:46;19.87;;;11.80;;
8074;SDS011;4080;42.676;23.372;2022-12-10T07:37:13;24.23;;;15.40;;
8074;SDS011;4080;42.676;23.372;2022-12-10T07:39:40;23.17;;;13.77;;
8074;SDS011;4080;42.676;23.372;2022-12-10T07:42:08;23.07;;;13.97;;
8074;SDS011;4080;42.676;23.372;2022-12-10T07:44:36;17.97;;;13.03;;
8074;SDS011;4080;42.676;23.372;2022-12-10T07:47:02;22.60;;;12.93;;
8074;SDS011;4080;42.676;23.372;2022-12-10T07:49:29;23.60;;;14.80;;
8074;SDS011;4080;42.676;23.372;2022-12-10T07:51:56;33.27;;;22.80;;
8074;SDS011;4080;42.676;23.372;2022-12-10T07:54:22;29.87;;;20.37;;
8074;SDS011;4080;42.676;23.372;2022-12-10T07:56:49;24.30;;;14.97;;
8074;SDS011;4080;42.676;23.372;2022-12-10T07:59:16;23.97;;;13.50;;
8074;SDS011;4080;42.676;23.372;2022-12-10T08:01:44;20.67;;;13.60;;
8074;SDS011;4080;42.676;23.372;2022-12-10T08:04:11;22.90;;;13.67;;
8074;SDS011;4080;42.676;23.372;2022-12-10T08:06:38;23.53;;;13.53;;
8074;SDS011;4080;42.676;23.372;2022-12-10T08:09:05;19.40;;;12.43;;
8074;SDS011;4080;42.676;23.372;2022-12-10T08:11:31;18.40;;;13.43;;
8074;SDS011;4080;42.676;23.372;2022-12-10T08:13:58;19.63;;;13.60;;
8074;SDS011;4080;42.676;23.372;2022-12-10T08:16:26;18.67;;;13.00;;
8074;SDS011;4080;42.676;23.372;2022-12-10T08:18:57;21.07;;;12.73;;
8074;SDS011;4080;42.676;23.372;2022-12-10T08:21:28;19.17;;;13.60;;
8074;SDS011;4080;42.676;23.372;2022-12-10T08:23:57;27.07;;;13.77;;
8074;SDS011;4080;42.676;23.372;2022-12-10T08:26:26;31.80;;;13.67;;
8074;SDS011;4080;42.676;23.372;2022-12-10T08:28:56;21.67;;;13.73;;
8074;SDS011;4080;42.676;23.372;2022-12-10T08:31:24;18.07;;;13.40;;
8074;SDS011;4080;42.676;23.372;2022-12-10T08:33:52;19.03;;;12.47;;
8074;SDS011;4080;42.676;23.372;2022-12-10T08:36:21;43.57;;;28.07;;
8074;SDS011;4080;42.676;23.372;2022-12-10T08:38:48;25.10;;;15.90;;
8074;SDS011;4080;42.676;23.372;2022-12-10T08:41:15;22.80;;;15.00;;
8074;SDS011;4080;42.676;23.372;2022-12-10T08:43:43;19.23;;;14.23;;
8074;SDS011;4080;42.676;23.372;2022-12-10T08:46:12;26.77;;;16.40;;
8074;SDS011;4080;42.676;23.372;2022-12-10T08:48:39;22.23;;;15.67;;
8074;SDS011;4080;42.676;23.372;2022-12-10T08:51:07;21.70;;;15.40;;
8074;SDS011;4080;42.676;23.372;2022-12-10T08:53:36;23.83;;;17.47;;
8074;SDS011;4080;42.676;23.372;2022-12-10T08:56:03;25.80;;;18.53;;
8074;SDS011;4080;42.676;23.372;2022-12-10T08:58:30;28.80;;;20.50;;
8074;SDS011;4080;42.676;23.372;2022-12-10T09:00:57;28.13;;;19.50;;
8074;SDS011;4080;42.676;23.372;2022-12-10T09:03:24;26.83;;;17.73;;
8074;SDS011;4080;42.676;23.372;2022-12-10T09:05:51;26.27;;;17.17;;
8074;SDS011;4080;42.676;23.372;2022-12-10T09:08:17;24.67;;;17.40;;
8074;SDS011;4080;42.676;23.372;2022-12-10T09:10:45;25.00;;;18.33;;
8074;SDS011;4080;42.676;23.372;2022-12-10T09:13:12;25.57;;;17.80;;
8074;SDS011;4080;42.676;23.372;2022-12-10T09:15:39;23.20;;;15.90;;
8074;SDS011;4080;42.676;23.372;2022-12-10T09:18:06;25.83;;;14.90;;
8074;SDS011;4080;42.676;23.372;2022-12-10T09:20:33;21.83;;;14.20;;
8074;SDS011;4080;42.676;23.372;2022-12-10T09:23:00;18.47;;;13.93;;
8074;SDS011;4080;42.676;23.372;2022-12-10T09:25:27;17.57;;;13.70;;
8074;SDS011;4080;42.676;23.372;2022-12-10T09:27:55;19.20;;;12.13;;
8074;SDS011;4080;42.676;23.372;2022-12-10T09:30:22;20.80;;;13.30;;
8074;SDS011;4080;42.676;23.372;2022-12-10T09:32:48;20.27;;;13.37;;
8074;SDS011;4080;42.676;23.372;2022-12-10T09:35:15;20.47;;;14.37;;
8074;SDS011;4080;42.676;23.372;2022-12-10T09:37:42;20.20;;;15.50;;
8074;SDS011;4080;42.676;23.372;2022-12-10T09:40:09;21.57;;;13.90;;
8074;SDS011;4080;42.676;23.372;2022-12-10T09:42:42;13.87;;;10.20;;
8074;SDS011;4080;42.676;23.372;2022-12-10T09:45:19;14.63;;;11.90;;
8074;SDS011;4080;42.676;23.372;2022-12-10T09:47:54;14.37;;;11.07;;
8074;SDS011;4080;42.676;23.372;2022-12-10T09:50:29;18.30;;;13.33;;
8074;SDS011;4080;42.676;23.372;2022-12-10T09:53:01;18.37;;;13.20;;
8074;SDS011;4080;42.676;23.372;2022-12-10T09:55:32;17.67;;;13.20;;
8074;SDS011;4080;42.676;23.372;2022-12-10T09:58:01;20.27;;;13.73;;
8074;SDS011;4080;42.676;23.372;2022-12-10T10:00:32;15.60;;;12.63;;
8074;SDS011;4080;42.676;23.372;2022-12-10T10:03:01;17.70;;;14.43;;
8074;SDS011;4080;42.676;23.372;2022-12-10T10:05:29;22.47;;;15.10;;
8074;SDS011;4080;42.676;23.372;2022-12-10T10:08:00;21.93;;;16.40;;
8074;SDS011;4080;42.676;23.372;2022-12-10T10:10:29;23.87;;;17.97;;
8074;SDS011;4080;42.676;23.372;2022-12-10T10:12:58;22.67;;;17.10;;
8074;SDS011;4080;42.676;23.372;2022-12-10T10:15:41;20.33;;;15.00;;
8074;SDS011;4080;42.676;23.372;2022-12-10T10:18:12;30.43;;;12.23;;
8074;SDS011;4080;42.676;23.372;2022-12-10T10:20:43;17.60;;;12.43;;
8074;SDS011;4080;42.676;23.372;2022-12-10T10:23:12;14.53;;;9.93;;
8074;SDS011;4080;42.676;23.372;2022-12-10T10:25:41;16.57;;;10.10;;
8074;SDS011;4080;42.676;23.372;2022-12-10T10:28:09;12.80;;;10.60;;
8074;SDS011;4080;42.676;23.372;2022-12-10T10:30:40;15.60;;;10.37;;
8074;SDS011;4080;42.676;23.372;2022-12-10T10:33:09;22.50;;;16.33;;
8074;SDS011;4080;42.676;23.372;2022-12-10T10:35:41;23.90;;;15.77;;
8074;SDS011;4080;42.676;23.372;2022-12-10T10:38:13;13.57;;;11.97;;
8074;SDS011;4080;42.676;23.372;2022-12-10T10:40:44;15.57;;;12.27;;
8074;SDS011;4080;42.676;23.372;2022-12-10T10:43:15;18.30;;;14.67;;
8074;SDS011;4080;42.676;23.372;2022-12-10T10:45:49;19.33;;;14.87;;
8074;SDS011;4080;42.676;23.372;2022-12-10T10:48:20;18.77;;;14.70;;
8074;SDS011;4080;42.676;23.372;2022-12-10T10:50:49;20.57;;;14.40;;
8074;SDS011;4080;42.676;23.372;2022-12-10T10:53:27;16.53;;;13.77;;
8074;SDS011;4080;42.676;23.372;2022-12-10T10:55:57;18.20;;;13.90;;
8074;SDS011;4080;42.676;23.372;2022-12-10T10:58:27;18.97;;;14.13;;
8074;SDS011;4080;42.676;23.372;2022-12-10T11:00:59;16.90;;;13.30;;
8074;SDS011;4080;42.676;23.372;2022-12-10T11:03:28;15.07;;;11.93;;
8074;SDS011;4080;42.676;23.372;2022-12-10T11:05:57;13.87;;;11.00;;
8074;SDS011;4080;42.676;23.372;2022-12-10T11:08:26;15.90;;;10.77;;
8074;SDS011;4080;42.676;23.372;2022-12-10T11:10:56;16.23;;;10.20;;
8074;SDS011;4080;42.676;23.372;2022-12-10T11:13:28;15.97;;;10.20;;
8074;SDS011;4080;42.676;23.372;2022-12-10T11:15:57;12.20;;;10.03;;
8074;SDS011;4080;42.676;23.372;2022-12-10T11:18:32;16.23;;;9.57;;
8074;SDS011;4080;42.676;23.372;2022-12-10T11:21:02;15.17;;;9.20;;
8074;SDS011;4080;42.676;23.372;2022-12-10T11:23:31;11.67;;;9.07;;
8074;SDS011;4080;42.676;23.372;2022-12-10T11:26:07;14.47;;;9.80;;
8074;SDS011;4080;42.676;23.372;2022-12-10T11:28:47;14.47;;;9.53;;
8074;SDS011;4080;42.676;23.372;2022-12-10T11:31:39;12.70;;;9.10;;
8074;SDS011;4080;42.676;23.372;2022-12-10T11:34:18;17.57;;;10.60;;
8074;SDS011;4080;42.676;23.372;2022-12-10T11:36:53;13.07;;;9.03;;
8074;SDS011;4080;42.676;23.372;2022-12-10T11:39:30;14.13;;;10.67;;
8074;SDS011;4080;42.676;23.372;2022-12-10T11:42:14;15.87;;;10.33;;
8074;SDS011;4080;42.676;23.372;2022-12-10T11:44:51;15.17;;;7.13;;
8074;SDS011;4080;42.676;23.372;2022-12-10T11:47:35;13.90;;;8.90;;
8074;SDS011;4080;42.676;23.372;2022-12-10T11:50:13;13.07;;;7.90;;
8074;SDS011;4080;42.676;23.372;2022-12-10T11:52:51;10.87;;;7.07;;
8074;SDS011;4080;42.676;23.372;2022-12-10T11:55:30;9.47;;;7.30;;
8074;SDS011;4080;42.676;23.372;2022-12-10T11:58:09;12.67;;;8.43;;
8074;SDS011;4080;42.676;23.372;2022-12-10T12:00:57;10.80;;;7.77;;
8074;SDS011;4080;42.676;23.372;2022-12-10T12:03:38;16.17;;;7.80;;
8074;SDS011;4080;42.676;23.372;2022-12-10T12:06:21;18.03;;;8.37;;
8074;SDS011;4080;42.676;23.372;2022-12-10T12:09:05;12.67;;;6.93;;
8074;SDS011;4080;42.676;23.372;2022-12-10T12:11:45;9.83;;;7.37;;
8074;SDS011;4080;42.676;23.372;2022-12-10T12:14:22;12.00;;;6.77;;
8074;SDS011;4080;42.676;23.372;2022-12-10T12:16:51;11.00;;;6.53;;
8074;SDS011;4080;42.676;23.372;2022-12-10T12:19:31;10.63;;;6.60;;
8074;SDS011;4080;42.676;23.372;2022-12-10T12:22:06;10.63;;;7.13;;
8074;SDS011;4080;42.676;23.372;2022-12-10T12:24:39;11.10;;;7.30;;
8074;SDS011;4080;42.676;23.372;2022-12-10T12:27:10;11.33;;;7.47;;
8074;SDS011;4080;42.676;23.372;2022-12-10T12:29:43;11.07;;;7.83;;
8074;SDS011;4080;42.676;23.372;2022-12-10T12:32:18;11.37;;;7.70;;
8074;SDS011;4080;42.676;23.372;2022-12-10T12:34:49;15.67;;;9.30;;
8074;SDS011;4080;42.676;23.372;2022-12-10T12:37:20;19.10;;;9.37;;
8074;SDS011;4080;42.676;23.372;2022-12-10T12:39:50;10.80;;;8.13;;
8074;SDS011;4080;42.676;23.372;2022-12-10T12:42:25;15.40;;;9.70;;
8074;SDS011;4080;42.676;23.372;2022-12-10T12:44:57;17.30;;;9.60;;
8074;SDS011;4080;42.676;23.372;2022-12-10T12:47:31;12.60;;;8.30;;
8074;SDS011;4080;42.676;23.372;2022-12-10T12:50:10;14.53;;;9.30;;
8074;SDS011;4080;42.676;23.372;2022-12-10T12:52:50;16.37;;;9.53;;
8074;SDS011;4080;42.676;23.372;2022-12-10T12:55:20;15.63;;;9.73;;
8074;SDS011;4080;42.676;23.372;2022-12-10T12:57:53;13.30;;;9.93;;
8074;SDS011;4080;42.676;23.372;2022-12-10T13:00:30;15.33;;;9.50;;
8074;SDS011;4080;42.676;23.372;2022-12-10T13:03:05;18.90;;;9.37;;
8074;SDS011;4080;42.676;23.372;2022-12-10T13:05:44;14.97;;;9.93;;
8074;SDS011;4080;42.676;23.372;2022-12-10T13:08:22;15.47;;;9.53;;
8074;SDS011;4080;42.676;23.372;2022-12-10T13:10:59;15.20;;;10.63;;
8074;SDS011;4080;42.676;23.372;2022-12-10T13:13:41;14.40;;;10.47;;
8074;SDS011;4080;42.676;23.372;2022-12-10T13:16:35;16.93;;;10.87;;
8074;SDS011;4080;42.676;23.372;2022-12-10T13:19:16;16.40;;;10.57;;
8074;SDS011;4080;42.676;23.372;2022-12-10T13:21:59;17.27;;;8.37;;
8074;SDS011;4080;42.676;23.372;2022-12-10T13:24:44;14.30;;;11.20;;
8074;SDS011;4080;42.676;23.372;2022-12-10T13:27:17;15.97;;;10.23;;
8074;SDS011;4080;42.676;23.372;2022-12-10T13:29:57;18.43;;;11.17;;
8074;SDS011;4080;42.676;23.372;2022-12-10T13:32:42;15.70;;;10.90;;
8074;SDS011;4080;42.676;23.372;2022-12-10T13:35:29;19.50;;;11.70;;
8074;SDS011;4080;42.676;23.372;2022-12-10T13:38:04;19.70;;;11.47;;
8074;SDS011;4080;42.676;23.372;2022-12-10T13:40:43;23.60;;;12.27;;
8074;SDS011;4080;42.676;23.372;2022-12-10T13:43:41;24.37;;;18.60;;
8074;SDS011;4080;42.676;23.372;2022-12-10T13:46:32;31.93;;;22.77;;
8074;SDS011;4080;42.676;23.372;2022-12-10T13:49:01;37.13;;;31.67;;
8074;SDS011;4080;42.676;23.372;2022-12-10T13:51:32;27.13;;;21.77;;
8074;SDS011;4080;42.676;23.372;2022-12-10T13:54:12;21.33;;;15.37;;
8074;SDS011;4080;42.676;23.372;2022-12-10T13:56:53;21.33;;;14.43;;
8074;SDS011;4080;42.676;23.372;2022-12-10T13:59:29;25.83;;;16.50;;
8074;SDS011;4080;42.676;23.372;2022-12-10T14:02:10;21.33;;;15.57;;
8074;SDS011;4080;42.676;23.372;2022-12-10T14:05:02;32.20;;;17.60;;
8074;SDS011;4080;42.676;23.372;2022-12-10T14:07:40;26.67;;;18.77;;
8074;SDS011;4080;42.676;23.372;2022-12-10T14:10:13;26.47;;;19.00;;
8074;SDS011;4080;42.676;23.372;2022-12-10T14:12:41;21.80;;;18.10;;
8074;SDS011;4080;42.676;23.372;2022-12-10T14:15:14;26.00;;;15.43;;
8074;SDS011;4080;42.676;23.372;2022-12-10T14:17:46;22.23;;;14.77;;
8074;SDS011;4080;42.676;23.372;2022-12-10T14:20:16;24.80;;;14.20;;
8074;SDS011;4080;42.676;23.372;2022-12-10T14:22:46;18.70;;;13.90;;
8074;SDS011;4080;42.676;23.372;2022-12-10T14:25:16;30.00;;;17.87;;
8074;SDS011;4080;42.676;23.372;2022-12-10T14:27:46;25.13;;;16.90;;
8074;SDS011;4080;42.676;23.372;2022-12-10T14:30:15;25.67;;;16.40;;
8074;SDS011;4080;42.676;23.372;2022-12-10T14:32:44;20.23;;;13.40;;
8074;SDS011;4080;42.676;23.372;2022-12-10T14:35:13;27.00;;;14.53;;
8074;SDS011;4080;42.676;23.372;2022-12-10T14:37:42;27.07;;;14.60;;
8074;SDS011;4080;42.676;23.372;2022-12-10T14:40:13;23.97;;;13.77;;
8074;SDS011;4080;42.676;23.372;2022-12-10T14:42:49;24.60;;;16.10;;
8074;SDS011;4080;42.676;23.372;2022-12-10T14:45:17;30.27;;;22.07;;
8074;SDS011;4080;42.676;23.372;2022-12-10T14:47:44;43.70;;;33.80;;
8074;SDS011;4080;42.676;23.372;2022-12-10T14:50:14;31.30;;;23.63;;
8074;SDS011;4080;42.676;23.372;2022-12-10T14:52:43;31.60;;;24.33;;
8074;SDS011;4080;42.676;23.372;2022-12-10T14:55:13;33.13;;;25.37;;
8074;SDS011;4080;42.676;23.372;2022-12-10T14:57:43;31.27;;;22.77;;
8074;SDS011;4080;42.676;23.372;2022-12-10T15:00:13;27.43;;;20.57;;
8074;SDS011;4080;42.676;23.372;2022-12-10T15:02:43;29.87;;;19.43;;